createdAt,value
2019-04-10T00:00:09.319Z,7.90
2019-04-10T00:02:37.798Z,7.50
2019-04-10T00:05:07.621Z,7.50
2019-04-10T00:07:36.059Z,7.50
2019-04-10T00:10:05.661Z,7.80
2019-04-10T00:12:34.339Z,7.17
2019-04-10T00:15:03.156Z,7.20
2019-04-10T00:17:31.647Z,6.80
2019-04-10T00:20:00.129Z,7.23
2019-04-10T00:22:28.587Z,7.50
2019-04-10T00:24:57.019Z,7.60
2019-04-10T00:27:26.263Z,7.37
2019-04-10T00:29:54.780Z,8.93
2019-04-10T00:32:23.746Z,7.70
2019-04-10T00:34:52.542Z,7.73
2019-04-10T00:37:26.830Z,8.50
2019-04-10T00:39:51.183Z,8.23
2019-04-10T00:42:19.698Z,8.17
2019-04-10T00:44:48.159Z,7.67
2019-04-10T00:47:17.038Z,7.67
2019-04-10T00:49:46.142Z,8.17
2019-04-10T00:52:14.804Z,7.00
2019-04-10T00:54:43.460Z,7.07
2019-04-10T00:57:12.829Z,7.50
2019-04-10T00:59:42.165Z,7.57
2019-04-10T01:02:10.762Z,8.70
2019-04-10T01:04:39.345Z,8.53
2019-04-10T01:07:08.637Z,8.13
2019-04-10T01:09:37.523Z,7.80
2019-04-10T01:12:06.227Z,7.77
2019-04-10T01:14:34.664Z,8.53
2019-04-10T01:17:04.070Z,9.20
2019-04-10T01:19:32.669Z,7.67
2019-04-10T01:22:01.203Z,9.10
2019-04-10T01:24:29.997Z,8.27
2019-04-10T01:26:59.288Z,9.10
2019-04-10T01:29:28.036Z,8.40
2019-04-10T01:31:56.575Z,8.90
2019-04-10T01:34:25.389Z,8.17
2019-04-10T01:36:54.582Z,9.23
2019-04-10T01:39:24.889Z,8.10
2019-04-10T01:41:54.380Z,8.63
2019-04-10T01:44:23.135Z,8.13
2019-04-10T01:46:52.838Z,8.37
2019-04-10T01:49:21.754Z,8.87
2019-04-10T01:51:50.403Z,9.13
2019-04-10T01:54:19.365Z,8.30
2019-04-10T01:56:48.037Z,8.70
2019-04-10T01:59:18.131Z,10.00
2019-04-10T02:01:48.699Z,9.03
2019-04-10T02:04:17.151Z,9.37
2019-04-10T02:06:45.662Z,9.30
2019-04-10T02:09:15.017Z,9.13
2019-04-10T02:11:43.553Z,9.50
2019-04-10T02:14:12.165Z,8.93
2019-04-10T02:16:41.121Z,9.33
2019-04-10T02:19:10.118Z,10.03
2019-04-10T02:21:38.721Z,9.97
2019-04-10T02:24:07.193Z,9.80
2019-04-10T02:26:36.017Z,9.77
2019-04-10T02:29:04.533Z,10.00
2019-04-10T02:31:34.511Z,10.03
2019-04-10T02:34:04.831Z,9.67
2019-04-10T02:36:34.427Z,10.17
2019-04-10T02:39:15.275Z,9.43
2019-04-10T02:41:36.441Z,9.50
2019-04-10T02:44:05.228Z,10.60
2019-04-10T02:46:33.699Z,9.70
2019-04-10T02:49:03.802Z,9.77
2019-04-10T02:51:32.592Z,10.23
2019-04-10T02:54:02.528Z,9.77
2019-04-10T02:56:32.645Z,10.47
2019-04-10T02:59:02.749Z,10.07
2019-04-10T03:01:31.656Z,10.17
2019-04-10T03:04:01.444Z,10.67
2019-04-10T03:06:31.170Z,10.27
2019-04-10T03:09:14.672Z,10.53
2019-04-10T03:11:31.262Z,9.40
2019-04-10T03:14:01.390Z,10.50
2019-04-10T03:16:31.159Z,10.30
2019-04-10T03:18:59.755Z,9.50
2019-04-10T03:21:29.244Z,11.20
2019-04-10T03:23:58.031Z,10.13
2019-04-10T03:26:27.814Z,9.87
2019-04-10T03:28:57.644Z,10.07
2019-04-10T03:31:27.752Z,11.20
2019-04-10T03:34:03.309Z,10.60
2019-04-10T03:36:36.310Z,10.33
2019-04-10T03:39:08.982Z,10.73
2019-04-10T03:41:37.997Z,10.90
2019-04-10T03:44:06.654Z,10.00
2019-04-10T03:46:45.057Z,11.13
2019-04-10T03:49:16.055Z,10.63
2019-04-10T03:51:45.012Z,11.00
2019-04-10T03:54:13.553Z,10.50
2019-04-10T03:56:42.544Z,10.83
2019-04-10T03:59:11.775Z,9.97
2019-04-10T04:01:40.948Z,10.70
2019-04-10T04:04:09.681Z,10.67
2019-04-10T04:06:38.159Z,10.83
2019-04-10T04:09:10.950Z,10.80
2019-04-10T04:11:37.851Z,10.60
2019-04-10T04:14:06.791Z,11.00
2019-04-10T04:16:35.330Z,10.90
2019-04-10T04:19:05.843Z,11.20
2019-04-10T04:21:35.949Z,11.30
2019-04-10T04:24:04.838Z,10.13
2019-04-10T04:26:33.369Z,12.10
2019-04-10T04:29:02.062Z,12.73
2019-04-10T04:31:31.203Z,13.23
2019-04-10T04:33:59.871Z,12.67
2019-04-10T04:36:28.702Z,13.80
2019-04-10T04:38:57.736Z,14.37
2019-04-10T04:41:27.369Z,14.13
2019-04-10T04:43:55.865Z,14.60
2019-04-10T04:46:24.368Z,14.20
2019-04-10T04:48:52.853Z,13.27
2019-04-10T04:51:21.965Z,14.97
2019-04-10T04:53:50.617Z,13.70
2019-04-10T04:56:19.948Z,13.47
2019-04-10T04:58:49.619Z,13.50
2019-04-10T05:01:19.000Z,13.27
2019-04-10T05:03:48.416Z,12.87
2019-04-10T05:06:18.122Z,12.53
2019-04-10T05:08:46.868Z,13.00
2019-04-10T05:11:15.353Z,12.70
2019-04-10T05:13:43.790Z,12.37
2019-04-10T05:16:12.376Z,12.43
2019-04-10T05:18:40.826Z,11.57
2019-04-10T05:21:09.309Z,12.77
2019-04-10T05:23:38.494Z,12.33
2019-04-10T05:26:08.146Z,12.13
2019-04-10T05:28:36.749Z,12.87
2019-04-10T05:31:05.210Z,12.07
2019-04-10T05:33:33.684Z,12.00
2019-04-10T05:36:02.241Z,11.17
2019-04-10T05:38:30.705Z,10.57
2019-04-10T05:41:01.334Z,11.33
2019-04-10T05:43:30.704Z,9.90
2019-04-10T05:45:59.348Z,11.00
2019-04-10T05:48:27.958Z,9.97
2019-04-10T05:51:02.998Z,10.27
2019-04-10T05:53:26.810Z,9.80
2019-04-10T05:55:55.879Z,11.57
2019-04-10T05:58:24.585Z,11.27
2019-04-10T06:00:53.438Z,10.23
2019-04-10T06:03:22.725Z,10.13
2019-04-10T06:05:51.299Z,9.80
2019-04-10T06:08:19.788Z,11.07
2019-04-10T06:10:48.254Z,9.53
2019-04-10T06:13:17.163Z,9.80
2019-04-10T06:15:45.861Z,10.00
2019-04-10T06:18:15.305Z,8.60
2019-04-10T06:20:45.167Z,10.13
2019-04-10T06:23:14.785Z,10.00
2019-04-10T06:25:43.735Z,9.20
2019-04-10T06:28:12.948Z,9.93
2019-04-10T06:30:41.910Z,10.67
2019-04-10T06:33:11.625Z,9.60
2019-04-10T06:35:40.185Z,10.40
2019-04-10T06:38:08.768Z,10.20
2019-04-10T06:40:37.682Z,9.60
2019-04-10T06:43:06.620Z,9.73
2019-04-10T06:45:35.769Z,10.10
2019-04-10T06:48:04.352Z,10.00
2019-04-10T06:50:32.926Z,9.93
2019-04-10T06:53:01.603Z,8.47
2019-04-10T06:55:30.289Z,9.73
2019-04-10T06:57:59.392Z,9.40
2019-04-10T07:00:28.614Z,9.97
2019-04-10T07:02:57.315Z,10.60
2019-04-10T07:05:36.980Z,10.20
2019-04-10T07:08:05.757Z,9.77
2019-04-10T07:10:33.609Z,9.50
2019-04-10T07:12:56.559Z,8.60
2019-04-10T07:15:25.655Z,8.77
2019-04-10T07:17:55.371Z,8.30
2019-04-10T07:20:24.170Z,8.10
2019-04-10T07:22:53.348Z,9.20
2019-04-10T07:25:22.017Z,8.03
2019-04-10T07:27:54.330Z,9.00
2019-04-10T07:30:26.254Z,8.63
2019-04-10T07:32:56.161Z,9.30
2019-04-10T07:35:25.663Z,9.30
2019-04-10T07:37:56.937Z,8.30
2019-04-10T07:40:24.936Z,8.53
2019-04-10T07:42:54.577Z,9.00
2019-04-10T07:45:26.433Z,8.67
2019-04-10T07:47:53.923Z,9.47
2019-04-10T07:50:22.650Z,9.23
2019-04-10T07:52:52.078Z,9.30
2019-04-10T07:55:21.106Z,8.83
2019-04-10T07:57:51.766Z,10.13
2019-04-10T08:00:20.777Z,9.37
2019-04-10T08:02:49.280Z,8.80
2019-04-10T08:05:18.771Z,10.33
2019-04-10T08:07:47.400Z,8.73
2019-04-10T08:10:15.939Z,8.40
2019-04-10T08:12:50.042Z,8.10
2019-04-10T08:15:14.648Z,8.63
2019-04-10T08:17:44.453Z,8.50
2019-04-10T08:20:13.369Z,8.50
2019-04-10T08:22:42.728Z,8.03
2019-04-10T08:25:11.370Z,8.60
2019-04-10T08:27:39.823Z,8.30
2019-04-10T08:30:10.948Z,7.77
2019-04-10T08:32:50.934Z,9.10
2019-04-10T08:35:11.108Z,8.73
2019-04-10T08:37:40.977Z,8.30
2019-04-10T08:40:11.521Z,8.07
2019-04-10T08:42:40.696Z,8.60
2019-04-10T08:45:11.396Z,8.20
2019-04-10T08:47:40.117Z,7.20
2019-04-10T08:50:09.652Z,7.43
2019-04-10T08:52:39.059Z,8.20
2019-04-10T08:55:08.031Z,9.00
2019-04-10T08:57:36.490Z,7.80
2019-04-10T09:00:08.731Z,8.90
2019-04-10T09:02:38.113Z,8.27
2019-04-10T09:05:09.193Z,7.73
2019-04-10T09:07:38.224Z,7.57
2019-04-10T09:10:07.358Z,7.43
2019-04-10T09:12:35.897Z,8.10
2019-04-10T09:15:05.642Z,9.77
2019-04-10T09:17:34.191Z,8.90
2019-04-10T09:20:06.659Z,8.90
2019-04-10T09:22:55.171Z,8.20
2019-04-10T09:25:06.966Z,7.53
2019-04-10T09:27:35.962Z,8.40
2019-04-10T09:30:06.800Z,7.70
2019-04-10T09:32:35.271Z,7.87
2019-04-10T09:35:04.836Z,8.80
2019-04-10T09:37:34.394Z,7.43
2019-04-10T09:40:05.614Z,8.17
2019-04-10T09:42:35.214Z,7.37
2019-04-10T09:45:04.798Z,7.90
2019-04-10T09:47:34.672Z,7.30
2019-04-10T09:50:03.745Z,7.20
2019-04-10T09:52:32.184Z,7.30
2019-04-10T09:55:00.739Z,6.63
2019-04-10T09:57:29.264Z,7.10
2019-04-10T09:59:57.833Z,6.63
2019-04-10T10:02:27.467Z,7.20
2019-04-10T10:04:56.092Z,7.17
2019-04-10T10:07:24.543Z,7.40
2019-04-10T10:09:53.058Z,7.30
2019-04-10T10:12:21.517Z,6.60
2019-04-10T10:14:49.992Z,6.93
2019-04-10T10:17:18.439Z,6.83
2019-04-10T10:19:48.081Z,7.50
2019-04-10T10:22:16.895Z,7.20
2019-04-10T10:24:46.716Z,6.83
2019-04-10T10:27:15.682Z,8.13
2019-04-10T10:29:44.260Z,7.20
2019-04-10T10:32:12.933Z,8.30
2019-04-10T10:34:41.457Z,7.20
2019-04-10T10:37:12.516Z,6.93
2019-04-10T10:39:41.441Z,8.00
2019-04-10T10:42:09.899Z,7.80
2019-04-10T10:44:40.896Z,7.17
2019-04-10T10:47:09.563Z,8.07
2019-04-10T10:49:38.076Z,7.40
2019-04-10T10:52:09.055Z,7.40
2019-04-10T10:54:38.165Z,7.67
2019-04-10T10:57:07.038Z,8.80
2019-04-10T10:59:35.747Z,8.20
2019-04-10T11:02:04.833Z,7.30
2019-04-10T11:04:33.643Z,7.10
2019-04-10T11:07:02.660Z,7.40
2019-04-10T11:09:32.406Z,7.90
2019-04-10T11:12:01.719Z,7.80
2019-04-10T11:14:31.584Z,7.87
2019-04-10T11:17:01.384Z,8.30
2019-04-10T11:19:31.166Z,7.40
2019-04-10T11:22:00.984Z,8.00
2019-04-10T11:24:29.732Z,7.70
2019-04-10T11:26:58.188Z,7.07
2019-04-10T11:29:28.756Z,8.30
2019-04-10T11:31:58.005Z,7.63
2019-04-10T11:34:26.630Z,8.03
2019-04-10T11:37:16.880Z,7.97
2019-04-10T11:39:28.589Z,8.90
2019-04-10T11:41:57.724Z,8.00
2019-04-10T11:44:27.493Z,8.03
2019-04-10T11:46:57.245Z,8.60
2019-04-10T11:49:27.801Z,8.90
2019-04-10T11:51:59.971Z,8.40
2019-04-10T11:54:29.655Z,7.80
2019-04-10T11:56:58.726Z,7.90
2019-04-10T11:59:28.818Z,8.60
2019-04-10T12:04:30.824Z,7.93
2019-04-10T12:07:01.494Z,8.50
2019-04-10T12:10:49.459Z,8.57
2019-04-10T12:11:59.417Z,8.57
2019-04-10T12:14:28.011Z,9.33
2019-04-10T12:16:56.453Z,8.43
2019-04-10T12:19:25.250Z,7.23
2019-04-10T12:21:53.860Z,7.73
2019-04-10T12:24:22.389Z,7.40
2019-04-10T12:26:51.731Z,7.53
2019-04-10T12:29:20.453Z,7.00
2019-04-10T12:31:48.901Z,7.37
2019-04-10T12:34:18.233Z,7.03
2019-04-10T12:36:47.275Z,6.30
2019-04-10T12:39:16.228Z,7.53
2019-04-10T12:41:45.832Z,7.33
2019-04-10T12:44:14.464Z,6.73
2019-04-10T12:46:43.556Z,6.83
2019-04-10T12:49:12.218Z,7.03
2019-04-10T12:51:41.537Z,7.10
2019-04-10T12:54:10.149Z,6.43
2019-04-10T12:56:38.670Z,6.80
2019-04-10T12:59:07.274Z,8.30
2019-04-10T13:01:36.579Z,7.23
2019-04-10T13:04:05.454Z,7.30
2019-04-10T13:06:33.942Z,7.80
2019-04-10T13:09:09.234Z,7.87
2019-04-10T13:11:34.366Z,8.03
2019-04-10T13:14:03.236Z,10.47
2019-04-10T13:16:32.108Z,8.13
2019-04-10T13:19:00.871Z,8.57
2019-04-10T13:21:29.262Z,7.47
2019-04-10T13:23:57.808Z,9.30
2019-04-10T13:26:26.248Z,8.93
2019-04-10T13:28:54.746Z,7.80
2019-04-10T13:31:23.515Z,7.87
2019-04-10T13:33:53.044Z,7.50
2019-04-10T13:36:21.812Z,7.70
2019-04-10T13:38:50.653Z,7.33
2019-04-10T13:41:19.115Z,7.13
2019-04-10T13:43:47.591Z,7.50
2019-04-10T13:46:16.415Z,7.53
2019-04-10T13:48:45.216Z,7.20
2019-04-10T13:51:14.964Z,7.90
2019-04-10T13:53:43.568Z,7.17
2019-04-10T13:56:12.845Z,6.97
2019-04-10T13:58:42.613Z,7.30
2019-04-10T14:01:13.372Z,6.90
2019-04-10T14:03:43.810Z,6.80
2019-04-10T14:06:12.193Z,6.43
2019-04-10T14:09:01.877Z,6.40
2019-04-10T14:11:13.215Z,6.50
2019-04-10T14:13:42.137Z,6.40
2019-04-10T14:16:10.865Z,6.03
2019-04-10T14:18:39.434Z,5.73
2019-04-10T14:21:12.869Z,7.90
2019-04-10T14:23:39.538Z,7.30
2019-04-10T14:26:24.667Z,6.90
2019-04-10T14:28:53.564Z,7.33
2019-04-10T14:31:26.693Z,6.60
2019-04-10T14:33:56.287Z,7.50
2019-04-10T14:36:25.244Z,8.00
2019-04-10T14:38:55.017Z,7.73
2019-04-10T14:41:24.828Z,7.40
2019-04-10T14:43:54.237Z,7.33
2019-04-10T14:46:24.164Z,8.30
2019-04-10T14:48:52.737Z,7.30
2019-04-10T14:51:21.995Z,7.20
2019-04-10T14:53:51.139Z,6.27
2019-04-10T14:56:19.914Z,7.43
2019-04-10T14:58:48.695Z,7.23
2019-04-10T15:01:17.817Z,7.17
2019-04-10T15:03:46.689Z,8.23
2019-04-10T15:06:15.675Z,7.47
2019-04-10T15:08:44.121Z,7.27
2019-04-10T15:11:13.937Z,7.70
2019-04-10T15:13:42.595Z,6.90
2019-04-10T15:16:11.248Z,7.50
2019-04-10T15:18:39.696Z,7.20
2019-04-10T15:21:08.309Z,7.97
2019-04-10T15:23:36.769Z,7.17
2019-04-10T15:26:05.996Z,7.50
2019-04-10T15:28:35.953Z,6.50
2019-04-10T15:31:05.159Z,7.17
2019-04-10T15:33:33.610Z,6.30
2019-04-10T15:36:02.090Z,7.60
2019-04-10T15:38:30.760Z,6.67
2019-04-10T15:40:59.367Z,6.67
2019-04-10T15:43:29.349Z,6.90
2019-04-10T15:45:58.141Z,5.87
2019-04-10T15:48:27.181Z,7.87
2019-04-10T15:50:55.986Z,5.70
2019-04-10T15:53:24.513Z,6.30
2019-04-10T15:55:53.719Z,6.30
2019-04-10T15:58:23.449Z,5.97
2019-04-10T16:00:52.162Z,7.30
2019-04-10T16:03:21.742Z,7.10
2019-04-10T16:05:50.463Z,6.60
2019-04-10T16:08:20.441Z,7.50
2019-04-10T16:10:50.854Z,6.90
2019-04-10T16:13:22.012Z,6.80
2019-04-10T16:15:50.653Z,6.50
2019-04-10T16:18:23.513Z,7.17
2019-04-10T16:20:54.899Z,6.67
2019-04-10T16:23:40.382Z,6.97
2019-04-10T16:26:09.638Z,6.50
2019-04-10T16:28:38.161Z,6.70
2019-04-10T16:31:07.559Z,7.30
2019-04-10T16:33:36.115Z,6.57
2019-04-10T16:36:05.264Z,6.70
2019-04-10T16:38:33.864Z,6.37
2019-04-10T16:41:02.783Z,6.30
2019-04-10T16:43:32.643Z,6.20
2019-04-10T16:46:02.892Z,6.50
2019-04-10T16:48:31.594Z,6.40
2019-04-10T16:51:00.300Z,5.77
2019-04-10T16:53:29.842Z,6.00
2019-04-10T16:55:59.051Z,6.90
2019-04-10T16:58:27.651Z,5.87
2019-04-10T17:00:56.231Z,6.00
2019-04-10T17:03:25.367Z,6.00
2019-04-10T17:05:54.011Z,6.00
2019-04-10T17:08:23.665Z,5.73
2019-04-10T17:10:52.541Z,6.00
2019-04-10T17:13:21.009Z,5.73
2019-04-10T17:15:50.321Z,5.97
2019-04-10T17:18:21.153Z,7.00
2019-04-10T17:20:51.001Z,6.80
2019-04-10T17:23:20.544Z,5.80
2019-04-10T17:25:50.665Z,6.00
2019-04-10T17:28:22.000Z,5.97
2019-04-10T17:30:49.758Z,5.87
2019-04-10T17:33:18.675Z,6.40
2019-04-10T17:35:47.586Z,6.23
2019-04-10T17:38:16.337Z,5.80
2019-04-10T17:40:50.514Z,6.03
2019-04-10T17:43:15.203Z,6.73
2019-04-10T17:45:44.861Z,5.83
2019-04-10T17:48:13.770Z,5.90
2019-04-10T17:50:43.560Z,5.23
2019-04-10T17:53:13.536Z,5.43
2019-04-10T17:55:42.600Z,6.20
2019-04-10T17:58:11.609Z,6.47
2019-04-10T18:00:43.236Z,6.43
2019-04-10T18:03:13.254Z,6.60
2019-04-10T18:05:42.591Z,6.33
2019-04-10T18:08:12.396Z,6.30
2019-04-10T18:10:48.699Z,6.67
2019-04-10T18:13:11.543Z,6.27
2019-04-10T18:15:40.374Z,7.20
2019-04-10T18:18:08.819Z,6.37
2019-04-10T18:20:37.397Z,7.07
2019-04-10T18:23:07.034Z,7.57
2019-04-10T18:25:36.163Z,7.20
2019-04-10T18:28:05.515Z,8.40
2019-04-10T18:30:35.531Z,7.40
2019-04-10T18:33:05.133Z,7.30
2019-04-10T18:35:35.267Z,6.63
2019-04-10T18:38:04.000Z,5.77
2019-04-10T18:40:32.606Z,6.40
2019-04-10T18:43:02.292Z,6.30
2019-04-10T18:45:31.211Z,5.93
2019-04-10T18:48:00.599Z,6.60
2019-04-10T18:50:29.286Z,5.93
2019-04-10T18:52:58.124Z,6.40
2019-04-10T18:55:26.595Z,6.10
2019-04-10T18:57:55.125Z,5.80
2019-04-10T19:00:37.126Z,5.00
2019-04-10T19:03:13.074Z,5.90
2019-04-10T19:05:48.921Z,5.63
2019-04-10T19:08:17.708Z,6.17
2019-04-10T19:10:47.345Z,5.80
2019-04-10T19:13:17.177Z,5.87
2019-04-10T19:15:46.967Z,5.90
2019-04-10T19:18:15.632Z,5.37
2019-04-10T19:20:44.265Z,5.60
2019-04-10T19:23:13.066Z,5.83
2019-04-10T19:25:43.382Z,6.00
2019-04-10T19:28:12.821Z,6.83
2019-04-10T19:30:43.537Z,5.83
2019-04-10T19:33:12.618Z,8.07
2019-04-10T19:35:41.437Z,8.50
2019-04-10T19:38:11.351Z,7.83
2019-04-10T19:40:40.451Z,7.27
2019-04-10T19:43:10.244Z,7.47
2019-04-10T19:45:39.752Z,5.80
2019-04-10T19:48:08.977Z,6.10
2019-04-10T19:50:37.658Z,6.70
2019-04-10T19:53:06.348Z,6.10
2019-04-10T19:55:35.923Z,6.23
2019-04-10T19:58:05.848Z,5.97
2019-04-10T20:00:36.776Z,9.17
2019-04-10T20:03:05.765Z,7.20
2019-04-10T20:05:34.261Z,6.40
2019-04-10T20:08:02.914Z,9.70
2019-04-10T20:10:31.370Z,12.53
2019-04-10T20:12:59.898Z,11.77
2019-04-10T20:15:28.841Z,8.63
2019-04-10T20:17:58.222Z,8.70
2019-04-10T20:20:27.115Z,8.03
2019-04-10T20:22:56.271Z,7.50
2019-04-10T20:25:26.123Z,6.40
2019-04-10T20:27:54.867Z,6.87
2019-04-10T20:30:25.828Z,7.23
2019-04-10T20:32:54.501Z,6.90
2019-04-10T20:35:25.052Z,5.60
2019-04-10T20:37:53.403Z,7.10
2019-04-10T20:40:22.158Z,5.80
2019-04-10T20:42:50.951Z,6.50
2019-04-10T20:45:21.049Z,5.17
2019-04-10T20:47:49.816Z,5.60
2019-04-10T20:50:18.267Z,5.53
2019-04-10T20:52:47.311Z,5.63
2019-04-10T20:55:15.838Z,6.00
2019-04-10T20:57:44.417Z,5.60
2019-04-10T21:00:18.213Z,5.43
2019-04-10T21:02:49.091Z,5.70
2019-04-10T21:05:18.063Z,5.80
2019-04-10T21:07:46.609Z,5.97
2019-04-10T21:10:15.099Z,4.90
2019-04-10T21:12:44.144Z,4.90
2019-04-10T21:15:13.212Z,5.40
2019-04-10T21:17:42.464Z,5.20
2019-04-10T21:20:13.207Z,4.37
2019-04-10T21:22:41.553Z,4.47
2019-04-10T21:25:10.316Z,5.00
2019-04-10T21:27:39.744Z,5.03
2019-04-10T21:30:26.361Z,5.67
2019-04-10T21:33:00.268Z,4.83
2019-04-10T21:35:37.123Z,4.80
2019-04-10T21:38:06.737Z,4.90
2019-04-10T21:40:35.410Z,4.80
2019-04-10T21:43:04.302Z,5.30
2019-04-10T21:45:35.025Z,4.57
2019-04-10T21:48:03.551Z,4.40
2019-04-10T21:50:32.006Z,4.77
2019-04-10T21:53:00.585Z,4.97
2019-04-10T21:55:29.187Z,5.53
2019-04-10T21:57:57.817Z,5.00
2019-04-10T22:00:45.156Z,4.70
2019-04-10T22:03:13.668Z,4.77
2019-04-10T22:05:44.536Z,5.97
2019-04-10T22:08:14.892Z,4.67
2019-04-10T22:10:45.073Z,5.50
2019-04-10T22:13:13.617Z,4.73
2019-04-10T22:15:44.816Z,4.73
2019-04-10T22:18:14.774Z,5.50
2019-04-10T22:20:43.764Z,5.70
2019-04-10T22:23:12.717Z,5.00
2019-04-10T22:25:41.169Z,5.43
2019-04-10T22:28:09.764Z,5.00
2019-04-10T22:30:38.282Z,5.77
2019-04-10T22:33:07.656Z,5.50
2019-04-10T22:35:36.202Z,5.47
2019-04-10T22:38:04.729Z,5.33
2019-04-10T22:40:33.388Z,6.33
2019-04-10T22:43:01.909Z,5.40
2019-04-10T22:45:31.709Z,5.10
2019-04-10T22:48:01.218Z,6.03
2019-04-10T22:50:30.844Z,5.37
2019-04-10T22:52:59.597Z,6.80
2019-04-10T22:55:28.221Z,6.07
2019-04-10T22:57:56.942Z,5.40
2019-04-10T23:00:28.004Z,5.67
2019-04-10T23:02:57.273Z,6.30
2019-04-10T23:05:26.775Z,5.80
2019-04-10T23:07:55.598Z,6.37
2019-04-10T23:10:24.750Z,6.73
2019-04-10T23:12:59.974Z,6.13
2019-04-10T23:15:25.129Z,6.40
2019-04-10T23:17:53.877Z,6.57
2019-04-10T23:20:22.466Z,5.93
2019-04-10T23:22:50.957Z,6.20
2019-04-10T23:25:20.495Z,6.20
2019-04-10T23:27:51.996Z,6.83
2019-04-10T23:30:19.923Z,6.10
2019-04-10T23:32:48.963Z,6.63
2019-04-10T23:35:17.541Z,6.17
2019-04-10T23:37:46.921Z,6.37
2019-04-10T23:40:16.861Z,5.53
2019-04-10T23:42:46.356Z,6.30
2019-04-10T23:45:15.613Z,6.10
2019-04-10T23:47:44.480Z,6.20
2019-04-10T23:50:15.026Z,6.27
2019-04-10T23:52:44.350Z,5.90
2019-04-10T23:55:13.636Z,5.70
2019-04-10T23:57:43.310Z,5.07
